createdAt,value
2023-03-06T00:00:52.641Z,29.13
2023-03-06T00:03:20.960Z,19.15
2023-03-06T00:05:48.872Z,20.35
2023-03-06T00:08:16.808Z,21.98
2023-03-06T00:10:44.627Z,21.83
2023-03-06T00:13:14.549Z,20.55
2023-03-06T00:15:42.538Z,20.27
2023-03-06T00:18:11.931Z,21.60
2023-03-06T00:20:41.561Z,19.95
2023-03-06T00:23:09.428Z,20.45
2023-03-06T00:25:38.638Z,18.98
2023-03-06T00:28:06.787Z,16.92
2023-03-06T00:30:34.637Z,24.73
2023-03-06T00:33:02.368Z,18.83
2023-03-06T00:35:31.535Z,22.63
2023-03-06T00:37:59.936Z,21.17
2023-03-06T00:40:28.053Z,25.52
2023-03-06T00:42:55.806Z,18.88
2023-03-06T00:45:23.636Z,20.83
2023-03-06T00:47:51.437Z,20.38
2023-03-06T00:50:19.454Z,19.95
2023-03-06T00:52:48.969Z,18.20
2023-03-06T00:55:16.862Z,21.05
2023-03-06T00:57:44.680Z,18.92
2023-03-06T01:00:15.021Z,18.35
2023-03-06T01:02:42.879Z,22.33
2023-03-06T01:05:11.219Z,15.15
2023-03-06T01:07:39.033Z,23.92
2023-03-06T01:10:08.989Z,18.00
2023-03-06T01:12:36.785Z,17.83
2023-03-06T01:15:05.445Z,16.17
2023-03-06T01:17:33.232Z,19.23
2023-03-06T01:20:00.998Z,14.80
2023-03-06T01:22:28.809Z,18.55
2023-03-06T01:24:56.577Z,19.40
2023-03-06T01:27:25.751Z,19.60
2023-03-06T01:29:53.443Z,16.73
2023-03-06T01:32:21.355Z,17.20
2023-03-06T01:34:49.089Z,18.60
2023-03-06T01:37:16.896Z,19.23
2023-03-06T01:39:44.634Z,18.38
2023-03-06T01:42:12.550Z,20.73
2023-03-06T01:45:07.256Z,19.83
2023-03-06T01:47:35.100Z,20.48
2023-03-06T01:50:04.052Z,24.88
2023-03-06T01:52:35.678Z,22.63
2023-03-06T01:55:07.157Z,17.17
2023-03-06T01:57:37.540Z,22.95
2023-03-06T02:00:10.707Z,19.88
2023-03-06T02:02:39.448Z,16.02
2023-03-06T02:05:08.709Z,19.45
2023-03-06T02:07:38.271Z,15.65
2023-03-06T02:10:06.920Z,21.92
2023-03-06T02:12:34.804Z,20.77
2023-03-06T02:15:02.693Z,23.45
2023-03-06T02:17:31.851Z,21.50
2023-03-06T02:20:07.562Z,20.58
2023-03-06T02:22:40.852Z,17.23
2023-03-06T02:25:13.061Z,23.95
2023-03-06T02:27:42.256Z,18.80
2023-03-06T02:30:11.509Z,19.00
2023-03-06T02:32:39.285Z,23.42
2023-03-06T02:35:08.176Z,18.27
2023-03-06T02:37:35.924Z,21.80
2023-03-06T02:40:12.226Z,18.42
2023-03-06T02:42:49.366Z,24.45
2023-03-06T02:45:22.505Z,18.10
2023-03-06T02:47:50.418Z,21.20
2023-03-06T02:50:18.531Z,20.00
2023-03-06T02:52:46.234Z,19.58
2023-03-06T02:55:13.938Z,19.60
2023-03-06T02:57:41.653Z,19.48
2023-03-06T03:00:12.426Z,24.88
2023-03-06T03:02:40.230Z,16.75
2023-03-06T03:05:08.654Z,16.02
2023-03-06T03:07:36.771Z,21.23
2023-03-06T03:10:05.206Z,16.13
2023-03-06T03:12:33.170Z,16.80
2023-03-06T03:15:00.844Z,18.90
2023-03-06T03:17:29.955Z,20.42
2023-03-06T03:19:57.841Z,18.55
2023-03-06T03:22:25.558Z,23.88
2023-03-06T03:24:53.400Z,20.83
2023-03-06T03:27:21.335Z,20.15
2023-03-06T03:29:49.189Z,20.20
2023-03-06T03:32:16.980Z,20.83
2023-03-06T03:34:46.039Z,18.35
2023-03-06T03:37:13.823Z,20.38
2023-03-06T03:39:41.607Z,18.30
2023-03-06T03:42:10.143Z,18.23
2023-03-06T03:44:37.841Z,18.50
2023-03-06T03:47:06.315Z,19.83
2023-03-06T03:49:34.090Z,15.32
2023-03-06T03:52:03.143Z,20.33
2023-03-06T03:54:30.936Z,17.33
2023-03-06T03:56:58.653Z,18.85
2023-03-06T03:59:26.445Z,16.77
2023-03-06T04:01:55.956Z,13.80
2023-03-06T04:04:24.099Z,15.55
2023-03-06T04:06:51.818Z,15.43
2023-03-06T04:09:20.933Z,16.40
2023-03-06T04:11:48.870Z,19.63
2023-03-06T04:14:16.689Z,19.40
2023-03-06T04:16:44.465Z,18.85
2023-03-06T04:19:12.238Z,20.20
2023-03-06T04:21:39.976Z,18.35
2023-03-06T04:24:08.512Z,18.75
2023-03-06T04:26:37.578Z,23.45
2023-03-06T04:29:05.389Z,19.80
2023-03-06T04:31:33.284Z,22.38
2023-03-06T04:34:01.112Z,21.92
2023-03-06T04:36:30.533Z,23.83
2023-03-06T04:38:58.804Z,17.77
2023-03-06T04:41:26.860Z,17.20
2023-03-06T04:43:56.002Z,14.70
2023-03-06T04:46:23.785Z,22.73
2023-03-06T04:48:51.557Z,20.20
2023-03-06T04:51:19.367Z,20.17
2023-03-06T04:53:47.213Z,17.23
2023-03-06T04:56:14.956Z,15.40
2023-03-06T04:58:44.620Z,15.57
2023-03-06T05:01:13.924Z,18.52
2023-03-06T05:03:41.738Z,17.23
2023-03-06T05:06:09.681Z,17.33
2023-03-06T05:08:37.452Z,17.00
2023-03-06T05:11:05.271Z,15.85
2023-03-06T05:13:33.004Z,20.73
2023-03-06T05:16:03.815Z,18.13
2023-03-06T05:18:33.511Z,15.88
2023-03-06T05:21:01.394Z,19.55
2023-03-06T05:23:30.092Z,17.92
2023-03-06T05:25:58.520Z,15.82
2023-03-06T05:28:26.820Z,21.05
2023-03-06T05:30:54.519Z,17.52
2023-03-06T05:33:22.353Z,19.15
2023-03-06T05:35:51.518Z,19.55
2023-03-06T05:38:19.616Z,18.15
2023-03-06T05:40:48.158Z,24.60
2023-03-06T05:43:16.020Z,17.63
2023-03-06T05:45:43.771Z,17.48
2023-03-06T05:48:13.440Z,15.80
2023-03-06T05:50:41.172Z,18.00
2023-03-06T05:53:10.270Z,27.63
2023-03-06T05:55:38.181Z,20.15
2023-03-06T05:58:05.908Z,18.48
2023-03-06T06:00:33.660Z,20.67
2023-03-06T06:03:02.398Z,21.40
2023-03-06T06:05:30.193Z,20.45
2023-03-06T06:07:57.886Z,18.38
2023-03-06T06:10:27.030Z,20.40
2023-03-06T06:12:54.755Z,19.08
2023-03-06T06:15:22.540Z,19.73
2023-03-06T06:17:50.266Z,19.98
2023-03-06T06:20:18.254Z,19.08
2023-03-06T06:22:45.955Z,19.40
2023-03-06T06:25:14.170Z,18.95
2023-03-06T06:27:43.294Z,18.77
2023-03-06T06:30:13.362Z,21.38
2023-03-06T06:32:41.123Z,20.13
2023-03-06T06:35:09.444Z,23.00
2023-03-06T06:37:37.202Z,18.80
2023-03-06T06:40:05.648Z,22.58
2023-03-06T06:42:39.477Z,28.20
2023-03-06T06:45:11.120Z,20.27
2023-03-06T06:47:41.117Z,18.58
2023-03-06T06:50:11.625Z,19.30
2023-03-06T06:52:39.395Z,20.52
2023-03-06T06:55:07.853Z,19.45
2023-03-06T06:57:35.651Z,20.73
2023-03-06T07:00:03.708Z,21.65
2023-03-06T07:02:33.089Z,20.10
2023-03-06T07:05:04.697Z,23.90
2023-03-06T07:07:35.632Z,17.73
2023-03-06T07:10:05.471Z,19.27
2023-03-06T07:12:34.884Z,18.50
2023-03-06T07:15:02.664Z,21.25
2023-03-06T07:17:31.900Z,19.73
2023-03-06T07:20:00.469Z,17.80
2023-03-06T07:22:31.938Z,20.75
2023-03-06T07:25:04.625Z,19.75
2023-03-06T07:27:32.898Z,34.50
2023-03-06T07:30:00.774Z,18.58
2023-03-06T07:32:28.664Z,19.33
2023-03-06T07:35:13.702Z,19.15
2023-03-06T07:37:45.574Z,22.45
2023-03-06T07:40:13.655Z,20.45
2023-03-06T07:42:41.416Z,19.00
2023-03-06T07:45:10.283Z,21.10
2023-03-06T07:47:38.065Z,23.45
2023-03-06T07:50:07.950Z,26.40
2023-03-06T07:52:35.985Z,22.80
2023-03-06T07:55:03.941Z,20.92
2023-03-06T07:57:31.783Z,23.38
2023-03-06T07:59:59.553Z,19.65
2023-03-06T08:02:27.322Z,21.33
2023-03-06T08:04:55.859Z,21.83
2023-03-06T08:07:24.933Z,21.25
2023-03-06T08:09:52.704Z,19.73
2023-03-06T08:12:20.486Z,24.67
2023-03-06T08:14:48.264Z,20.20
2023-03-06T08:17:16.010Z,20.50
2023-03-06T08:19:43.882Z,18.77
2023-03-06T08:22:13.872Z,23.42
2023-03-06T08:24:43.304Z,30.77
2023-03-06T08:27:11.039Z,26.27
2023-03-06T08:29:38.822Z,19.60
2023-03-06T08:32:07.177Z,22.33
2023-03-06T08:34:35.122Z,15.80
2023-03-06T08:37:02.809Z,19.33
2023-03-06T08:39:30.627Z,21.17
2023-03-06T08:41:59.719Z,24.50
2023-03-06T08:44:27.508Z,23.40
2023-03-06T08:46:55.223Z,16.27
2023-03-06T08:49:23.127Z,20.83
2023-03-06T08:51:50.827Z,17.83
2023-03-06T08:54:18.762Z,18.42
2023-03-06T08:56:46.559Z,20.90
2023-03-06T08:59:15.602Z,17.42
2023-03-06T09:01:45.781Z,20.48
2023-03-06T09:04:15.502Z,19.10
2023-03-06T09:06:46.237Z,18.63
2023-03-06T09:09:16.136Z,23.00
2023-03-06T09:11:45.907Z,18.23
2023-03-06T09:14:16.843Z,16.73
2023-03-06T09:16:46.811Z,19.13
2023-03-06T09:19:16.624Z,17.05
2023-03-06T09:21:46.533Z,17.85
2023-03-06T09:24:16.326Z,22.05
2023-03-06T09:26:47.963Z,18.48
2023-03-06T09:29:20.056Z,18.88
2023-03-06T09:31:50.104Z,15.85
2023-03-06T09:34:19.965Z,18.50
2023-03-06T09:36:56.926Z,19.52
2023-03-06T09:39:28.033Z,22.75
2023-03-06T09:41:59.404Z,20.73
2023-03-06T09:44:33.177Z,18.48
2023-03-06T09:47:32.834Z,19.88
2023-03-06T09:50:12.356Z,21.73
2023-03-06T09:52:53.261Z,19.92
2023-03-06T09:55:27.777Z,19.73
2023-03-06T09:58:00.455Z,17.70
2023-03-06T10:00:34.741Z,15.93
2023-03-06T10:03:15.762Z,19.77
2023-03-06T10:05:47.817Z,18.95
2023-03-06T10:08:25.671Z,19.63
2023-03-06T10:11:01.842Z,17.85
2023-03-06T10:16:08.236Z,17.98
2023-03-06T10:18:38.930Z,20.92
2023-03-06T10:21:21.904Z,19.73
2023-03-06T10:23:54.562Z,20.55
2023-03-06T10:26:27.865Z,23.95
2023-03-06T10:29:07.493Z,19.95
2023-03-06T10:31:37.450Z,23.05
2023-03-06T10:34:20.247Z,17.27
2023-03-06T10:36:47.970Z,23.00
2023-03-06T10:39:19.915Z,21.48
2023-03-06T10:41:49.406Z,19.60
2023-03-06T10:44:26.323Z,21.48
2023-03-06T10:46:56.303Z,22.75
2023-03-06T10:49:30.181Z,20.60
2023-03-06T10:52:00.993Z,20.88
2023-03-06T10:54:30.346Z,20.25
2023-03-06T10:56:58.109Z,19.08
2023-03-06T10:59:28.363Z,20.42
2023-03-06T11:01:59.088Z,22.33
2023-03-06T11:04:29.501Z,19.40
2023-03-06T11:07:07.130Z,22.52
2023-03-06T11:09:35.074Z,21.27
2023-03-06T11:12:21.964Z,18.88
2023-03-06T11:15:09.428Z,17.38
2023-03-06T11:17:49.017Z,22.85
2023-03-06T11:20:18.738Z,24.13
2023-03-06T11:22:49.289Z,18.80
2023-03-06T11:25:19.564Z,20.33
2023-03-06T11:27:55.774Z,21.80
2023-03-06T11:33:00.438Z,18.63
2023-03-06T11:35:35.067Z,20.88
2023-03-06T11:38:08.185Z,18.92
2023-03-06T11:40:43.667Z,18.20
2023-03-06T11:43:21.530Z,17.55
2023-03-06T11:45:56.822Z,17.58
2023-03-06T11:48:29.299Z,17.83
2023-03-06T11:51:06.404Z,16.25
2023-03-06T11:53:37.592Z,19.40
2023-03-06T11:56:20.052Z,17.30
2023-03-06T11:59:01.012Z,13.15
2023-03-06T12:01:35.713Z,16.60
2023-03-06T12:04:38.613Z,15.55
2023-03-06T12:07:21.461Z,16.60
2023-03-06T12:09:55.588Z,12.90
2023-03-06T12:12:54.586Z,14.95
2023-03-06T12:15:31.321Z,17.30
2023-03-06T12:18:07.107Z,18.73
2023-03-06T12:20:51.853Z,13.52
2023-03-06T12:23:33.696Z,17.77
2023-03-06T12:26:09.419Z,16.10
2023-03-06T12:28:53.404Z,13.75
2023-03-06T12:31:34.719Z,14.20
2023-03-06T12:34:14.766Z,13.77
2023-03-06T12:37:07.216Z,15.98
2023-03-06T12:39:48.882Z,14.75
2023-03-06T12:42:34.595Z,15.15
2023-03-06T12:45:30.602Z,12.85
2023-03-06T12:47:58.968Z,14.63
2023-03-06T12:50:28.898Z,16.70
2023-03-06T12:53:01.616Z,17.08
2023-03-06T12:55:32.580Z,16.98
2023-03-06T12:58:37.518Z,13.32
2023-03-06T13:01:14.744Z,11.10
2023-03-06T13:04:04.878Z,12.98
2023-03-06T13:06:54.086Z,9.82
2023-03-06T13:09:32.347Z,12.90
2023-03-06T13:12:13.910Z,13.88
2023-03-06T13:15:01.494Z,11.63
2023-03-06T13:17:37.785Z,11.73
2023-03-06T13:20:28.075Z,13.57
2023-03-06T13:22:56.114Z,12.23
2023-03-06T13:25:49.561Z,11.30
2023-03-06T13:28:24.757Z,9.70
2023-03-06T13:30:53.296Z,12.05
2023-03-06T13:33:52.996Z,15.82
2023-03-06T13:36:23.670Z,12.10
2023-03-06T13:39:06.460Z,10.80
2023-03-06T13:41:41.167Z,9.80
2023-03-06T13:44:43.713Z,11.05
2023-03-06T13:48:02.783Z,10.32
2023-03-06T13:50:37.694Z,9.48
2023-03-06T13:53:21.879Z,11.73
2023-03-06T13:55:58.572Z,9.30
2023-03-06T13:58:41.742Z,11.50
2023-03-06T14:01:33.334Z,10.65
2023-03-06T14:04:29.081Z,15.63
2023-03-06T14:07:19.066Z,13.70
2023-03-06T14:09:49.171Z,14.57
2023-03-06T14:12:23.775Z,15.23
2023-03-06T14:14:56.142Z,14.90
2023-03-06T14:17:30.004Z,17.75
2023-03-06T14:20:00.946Z,16.67
2023-03-06T14:22:28.715Z,15.90
2023-03-06T14:25:00.568Z,14.52
2023-03-06T14:27:43.756Z,15.77
2023-03-06T14:30:16.820Z,20.48
2023-03-06T14:32:45.136Z,15.15
2023-03-06T14:35:26.789Z,15.63
2023-03-06T14:37:58.259Z,21.48
2023-03-06T14:40:31.146Z,15.82
2023-03-06T14:43:20.092Z,22.67
2023-03-06T14:45:55.325Z,16.70
2023-03-06T14:48:24.434Z,17.30
2023-03-06T14:50:54.210Z,16.40
2023-03-06T14:53:26.398Z,16.73
2023-03-06T14:55:57.824Z,15.90
2023-03-06T14:58:32.748Z,11.57
2023-03-06T15:01:05.941Z,13.48
2023-03-06T15:03:42.530Z,14.02
2023-03-06T15:06:12.898Z,16.80
2023-03-06T15:08:44.984Z,12.93
2023-03-06T15:11:12.891Z,15.38
2023-03-06T15:13:41.235Z,14.60
2023-03-06T15:16:25.673Z,11.75
2023-03-06T15:18:57.996Z,17.67
2023-03-06T15:21:27.440Z,18.70
2023-03-06T15:23:57.453Z,18.13
2023-03-06T15:26:29.534Z,16.33
2023-03-06T15:29:09.266Z,12.65
2023-03-06T15:31:40.300Z,9.57
2023-03-06T15:34:26.101Z,11.95
2023-03-06T15:36:56.519Z,14.10
2023-03-06T15:39:36.056Z,13.07
2023-03-06T15:42:14.102Z,12.68
2023-03-06T15:44:41.927Z,11.77
2023-03-06T15:47:12.584Z,17.75
2023-03-06T15:49:40.968Z,15.15
2023-03-06T15:52:09.693Z,13.00
2023-03-06T15:54:37.956Z,18.05
2023-03-06T15:57:08.177Z,13.45
2023-03-06T15:59:42.095Z,14.05
2023-03-06T16:02:16.704Z,13.75
2023-03-06T16:04:45.136Z,13.82
2023-03-06T16:07:13.068Z,18.73
2023-03-06T16:09:41.612Z,17.30
2023-03-06T16:12:16.092Z,17.45
2023-03-06T16:14:44.164Z,13.75
2023-03-06T16:17:14.467Z,14.02
2023-03-06T16:19:42.949Z,14.98
2023-03-06T16:22:10.761Z,15.00
2023-03-06T16:24:38.616Z,13.48
2023-03-06T16:27:07.202Z,12.57
2023-03-06T16:29:35.579Z,12.45
2023-03-06T16:32:04.391Z,14.45
2023-03-06T16:34:33.600Z,14.30
2023-03-06T16:37:01.358Z,18.27
2023-03-06T16:39:29.121Z,14.13
2023-03-06T16:41:56.984Z,15.73
2023-03-06T16:44:24.754Z,15.35
2023-03-06T16:46:52.515Z,19.50
2023-03-06T16:49:23.387Z,18.85
2023-03-06T16:51:53.381Z,19.30
2023-03-06T16:54:21.867Z,21.17
2023-03-06T16:56:49.731Z,19.17
2023-03-06T16:59:17.521Z,18.90
2023-03-06T17:01:45.360Z,18.77
2023-03-06T17:04:13.221Z,19.95
2023-03-06T17:06:41.678Z,21.80
2023-03-06T17:09:11.610Z,17.40
2023-03-06T17:11:39.531Z,15.82
2023-03-06T17:14:07.726Z,18.92
2023-03-06T17:16:37.005Z,17.88
2023-03-06T17:19:04.788Z,17.15
2023-03-06T17:21:35.225Z,19.48
2023-03-06T17:24:03.637Z,18.67
2023-03-06T17:26:32.852Z,20.25
2023-03-06T17:29:01.054Z,17.33
2023-03-06T17:31:30.092Z,16.90
2023-03-06T17:34:00.537Z,19.05
2023-03-06T17:36:28.727Z,16.80
2023-03-06T17:38:57.072Z,20.50
2023-03-06T17:41:25.892Z,19.30
2023-03-06T17:43:57.687Z,15.38
2023-03-06T17:46:25.628Z,17.38
2023-03-06T17:48:53.424Z,20.20
2023-03-06T17:51:21.143Z,23.10
2023-03-06T17:53:49.164Z,26.40
2023-03-06T17:56:16.993Z,16.45
2023-03-06T17:58:44.894Z,17.70
2023-03-06T18:01:16.795Z,16.08
2023-03-06T18:03:45.656Z,16.00
2023-03-06T18:06:13.741Z,19.23
2023-03-06T18:08:41.787Z,19.90
2023-03-06T18:11:11.722Z,20.75
2023-03-06T18:13:42.447Z,26.75
2023-03-06T18:16:13.234Z,18.65
2023-03-06T18:18:42.378Z,26.58
2023-03-06T18:21:12.673Z,16.90
2023-03-06T18:23:41.518Z,21.35
2023-03-06T18:26:11.740Z,24.73
2023-03-06T18:28:42.424Z,18.35
2023-03-06T18:31:16.092Z,21.83
2023-03-06T18:33:45.553Z,17.20
2023-03-06T18:36:13.295Z,27.73
2023-03-06T18:38:43.777Z,26.85
2023-03-06T18:41:12.297Z,25.08
2023-03-06T18:43:40.095Z,21.13
2023-03-06T18:46:08.618Z,20.98
2023-03-06T18:48:36.777Z,18.63
2023-03-06T18:51:07.036Z,21.73
2023-03-06T18:53:34.774Z,20.52
2023-03-06T18:56:03.234Z,21.35
2023-03-06T18:58:31.109Z,19.17
2023-03-06T19:00:59.679Z,24.15
2023-03-06T19:03:27.926Z,18.65
2023-03-06T19:05:55.769Z,19.17
2023-03-06T19:08:24.857Z,19.25
2023-03-06T19:10:52.726Z,18.92
2023-03-06T19:13:20.477Z,15.45
2023-03-06T19:15:49.810Z,20.10
2023-03-06T19:18:18.599Z,18.55
2023-03-06T19:20:46.455Z,19.75
2023-03-06T19:23:14.337Z,21.55
2023-03-06T19:25:43.555Z,21.42
2023-03-06T19:28:11.305Z,18.73
2023-03-06T19:30:41.029Z,17.45
2023-03-06T19:33:08.819Z,20.25
2023-03-06T19:35:36.817Z,17.08
2023-03-06T19:38:04.558Z,20.63
2023-03-06T19:40:32.425Z,22.40
2023-03-06T19:43:01.847Z,20.70
2023-03-06T19:45:29.704Z,23.45
2023-03-06T19:48:00.722Z,24.95
2023-03-06T19:50:29.477Z,24.30
2023-03-06T19:52:57.554Z,29.88
2023-03-06T19:55:26.279Z,29.35
2023-03-06T19:57:54.070Z,24.50
2023-03-06T20:00:23.775Z,28.60
2023-03-06T20:02:51.673Z,30.88
2023-03-06T20:05:19.582Z,23.02
2023-03-06T20:07:47.358Z,30.25
2023-03-06T20:10:15.282Z,28.95
2023-03-06T20:12:43.094Z,24.98
2023-03-06T20:15:11.872Z,27.13
2023-03-06T20:17:41.460Z,23.73
2023-03-06T20:20:10.848Z,19.88
2023-03-06T20:22:38.811Z,21.65
2023-03-06T20:25:07.253Z,23.75
2023-03-06T20:27:35.062Z,19.88
2023-03-06T20:30:02.810Z,18.65
2023-03-06T20:32:30.775Z,18.83
2023-03-06T20:34:59.973Z,20.38
2023-03-06T20:37:27.813Z,22.20
2023-03-06T20:39:55.555Z,20.85
2023-03-06T20:42:23.369Z,22.42
2023-03-06T20:44:51.164Z,21.90
2023-03-06T20:47:18.932Z,19.42
2023-03-06T20:49:46.799Z,22.48
2023-03-06T20:52:15.853Z,21.85
2023-03-06T20:54:45.252Z,18.35
2023-03-06T20:57:12.987Z,19.98
2023-03-06T20:59:40.866Z,17.85
2023-03-06T21:02:11.816Z,21.35
2023-03-06T21:04:40.944Z,23.80
2023-03-06T21:07:08.809Z,20.42
2023-03-06T21:09:39.464Z,18.83
2023-03-06T21:12:07.511Z,20.13
2023-03-06T21:14:35.472Z,24.60
2023-03-06T21:17:03.206Z,20.95
2023-03-06T21:19:30.942Z,23.20
2023-03-06T21:21:58.861Z,21.40
2023-03-06T21:24:26.694Z,23.27
2023-03-06T21:26:55.868Z,19.45
2023-03-06T21:29:23.600Z,18.15
2023-03-06T21:31:51.383Z,21.25
2023-03-06T21:34:20.153Z,23.10
2023-03-06T21:36:48.161Z,17.02
2023-03-06T21:39:15.950Z,19.63
2023-03-06T21:41:43.732Z,18.90
2023-03-06T21:44:12.805Z,20.67
2023-03-06T21:46:40.632Z,19.25
2023-03-06T21:49:08.344Z,21.48
2023-03-06T21:51:36.176Z,17.48
2023-03-06T21:54:04.284Z,18.52
2023-03-06T21:56:33.406Z,19.98
2023-03-06T21:59:01.227Z,17.45
2023-03-06T22:01:30.506Z,25.98
2023-03-06T22:03:59.760Z,20.80
2023-03-06T22:06:29.342Z,24.33
2023-03-06T22:08:58.404Z,25.35
2023-03-06T22:11:28.102Z,21.08
2023-03-06T22:13:55.811Z,18.75
2023-03-06T22:16:23.656Z,22.88
2023-03-06T22:18:52.982Z,22.75
2023-03-06T22:21:22.126Z,21.10
2023-03-06T22:23:50.785Z,22.20
2023-03-06T22:26:18.553Z,22.38
2023-03-06T22:28:47.451Z,24.92
2023-03-06T22:31:17.429Z,19.85
2023-03-06T22:33:45.434Z,23.60
2023-03-06T22:36:16.501Z,23.58
2023-03-06T22:38:45.897Z,22.25
2023-03-06T22:41:14.780Z,21.58
2023-03-06T22:43:42.774Z,22.73
2023-03-06T22:46:12.553Z,20.38
2023-03-06T22:48:40.584Z,26.08
2023-03-06T22:51:10.582Z,25.25
2023-03-06T22:53:40.249Z,20.45
2023-03-06T22:56:10.771Z,22.33
2023-03-06T22:58:39.123Z,20.15
2023-03-06T23:01:11.506Z,22.98
2023-03-06T23:03:40.778Z,22.17
2023-03-06T23:06:10.125Z,23.77
2023-03-06T23:08:39.653Z,24.42
2023-03-06T23:11:10.000Z,23.90
2023-03-06T23:13:38.177Z,22.20
2023-03-06T23:16:07.809Z,22.20
2023-03-06T23:18:36.246Z,21.02
2023-03-06T23:21:07.771Z,21.08
2023-03-06T23:23:35.702Z,19.50
2023-03-06T23:26:05.496Z,22.25
2023-03-06T23:28:34.666Z,20.95
2023-03-06T23:31:07.559Z,20.02
2023-03-06T23:33:35.321Z,21.13
2023-03-06T23:36:03.621Z,20.48
2023-03-06T23:38:31.624Z,22.10
2023-03-06T23:41:04.551Z,24.35
2023-03-06T23:43:32.526Z,22.35
2023-03-06T23:46:00.605Z,21.50
2023-03-06T23:48:28.926Z,21.73
2023-03-06T23:50:57.301Z,24.50
2023-03-06T23:53:25.508Z,24.25
2023-03-06T23:55:53.711Z,21.70
2023-03-06T23:58:22.997Z,27.00
